createdAt,value
2022-11-08T00:02:03.054Z,18.84
2022-11-08T00:05:24.865Z,18.76
2022-11-08T00:08:45.792Z,18.73
2022-11-08T00:12:07.312Z,18.63
2022-11-08T00:15:10.369Z,18.99
2022-11-08T00:18:13.247Z,18.55
2022-11-08T00:21:16.731Z,18.63
2022-11-08T00:24:19.090Z,18.70
2022-11-08T00:27:23.524Z,18.52
2022-11-08T00:30:26.271Z,18.56
2022-11-08T00:33:28.583Z,18.71
2022-11-08T00:36:32.423Z,18.63
2022-11-08T00:39:34.991Z,18.67
2022-11-08T00:42:37.880Z,18.74
2022-11-08T00:45:39.942Z,18.56
2022-11-08T00:48:45.451Z,18.60
2022-11-08T00:51:47.501Z,18.45
2022-11-08T00:54:49.986Z,18.52
2022-11-08T00:57:59.707Z,18.56
2022-11-08T01:01:10.543Z,18.59
2022-11-08T01:04:15.428Z,18.46
2022-11-08T01:07:18.080Z,18.61
2022-11-08T01:10:20.490Z,18.91
2022-11-08T01:13:23.469Z,18.67
2022-11-08T01:16:27.849Z,18.57
2022-11-08T01:19:30.319Z,18.50
2022-11-08T01:22:32.306Z,18.22
2022-11-08T01:25:39.898Z,18.45
2022-11-08T01:28:42.363Z,18.77
2022-11-08T01:31:46.180Z,18.99
2022-11-08T01:34:48.441Z,19.18
2022-11-08T01:37:51.699Z,19.21
2022-11-08T01:40:54.210Z,19.25
2022-11-08T01:43:59.286Z,19.21
2022-11-08T01:47:01.453Z,19.24
2022-11-08T01:50:16.735Z,19.28
2022-11-08T01:53:19.638Z,19.30
2022-11-08T01:56:22.048Z,19.22
2022-11-08T01:59:24.484Z,19.15
2022-11-08T02:02:30.150Z,19.06
2022-11-08T02:05:33.758Z,19.07
2022-11-08T02:08:45.554Z,19.10
2022-11-08T02:11:48.932Z,19.08
2022-11-08T02:14:51.404Z,19.15
2022-11-08T02:17:54.496Z,19.24
2022-11-08T02:21:16.284Z,19.25
2022-11-08T02:24:18.368Z,19.30
2022-11-08T02:27:20.739Z,19.31
2022-11-08T02:30:23.041Z,19.28
2022-11-08T02:33:25.444Z,19.30
2022-11-08T02:36:27.559Z,19.20
2022-11-08T02:39:30.324Z,19.25
2022-11-08T02:42:32.465Z,19.31
2022-11-08T02:45:35.080Z,19.28
2022-11-08T02:48:37.248Z,19.15
2022-11-08T02:51:40.262Z,19.07
2022-11-08T02:54:42.944Z,19.11
2022-11-08T02:57:45.574Z,19.04
2022-11-08T03:00:47.950Z,19.08
2022-11-08T03:03:50.407Z,19.06
2022-11-08T03:06:52.835Z,18.71
2022-11-08T03:09:55.635Z,19.03
2022-11-08T03:13:00.237Z,18.97
2022-11-08T03:16:05.112Z,19.00
2022-11-08T03:19:07.197Z,19.00
2022-11-08T03:22:09.782Z,19.12
2022-11-08T03:25:13.138Z,19.18
2022-11-08T03:28:20.306Z,19.20
2022-11-08T03:31:24.731Z,19.20
2022-11-08T03:34:27.394Z,19.22
2022-11-08T03:37:29.472Z,19.20
2022-11-08T03:40:32.448Z,19.00
2022-11-08T03:43:34.518Z,19.12
2022-11-08T03:46:37.040Z,19.14
2022-11-08T03:49:39.087Z,19.15
2022-11-08T03:52:42.896Z,19.15
2022-11-08T03:55:45.154Z,19.15
2022-11-08T03:58:47.873Z,19.17
2022-11-08T04:01:50.104Z,19.15
2022-11-08T04:04:53.786Z,19.17
2022-11-08T04:07:56.088Z,19.15
2022-11-08T04:11:19.207Z,19.14
2022-11-08T04:14:39.711Z,19.15
2022-11-08T04:18:12.068Z,19.10
2022-11-08T04:21:22.404Z,19.11
2022-11-08T04:24:24.943Z,19.12
2022-11-08T04:27:26.915Z,19.14
2022-11-08T04:30:29.543Z,19.12
2022-11-08T04:33:32.212Z,19.08
2022-11-08T04:36:34.958Z,19.10
2022-11-08T04:39:37.328Z,19.08
2022-11-08T04:42:44.729Z,19.11
2022-11-08T04:45:47.098Z,19.04
2022-11-08T04:48:56.683Z,19.08
2022-11-08T04:51:58.664Z,19.10
2022-11-08T04:55:01.104Z,19.07
2022-11-08T04:58:03.414Z,19.07
2022-11-08T05:01:08.431Z,19.07
2022-11-08T05:04:10.521Z,19.10
2022-11-08T05:07:13.076Z,19.06
2022-11-08T05:10:15.763Z,19.07
2022-11-08T05:13:18.258Z,19.03
2022-11-08T05:16:25.907Z,18.97
2022-11-08T05:19:47.369Z,19.04
2022-11-08T05:23:08.329Z,19.04
2022-11-08T05:26:11.374Z,19.00
2022-11-08T05:29:15.273Z,19.01
2022-11-08T05:32:17.851Z,19.04
2022-11-08T05:35:21.964Z,19.03
2022-11-08T05:38:24.557Z,18.99
2022-11-08T05:41:26.901Z,19.03
2022-11-08T05:44:29.385Z,18.90
2022-11-08T05:47:33.262Z,18.99
2022-11-08T05:50:36.914Z,19.00
2022-11-08T05:53:49.010Z,19.01
2022-11-08T05:56:51.916Z,18.99
2022-11-08T05:59:53.859Z,19.01
2022-11-08T06:02:56.834Z,19.00
2022-11-08T06:06:08.672Z,19.00
2022-11-08T06:09:11.469Z,19.00
2022-11-08T06:12:15.423Z,18.94
2022-11-08T06:15:18.023Z,19.03
2022-11-08T06:18:20.351Z,19.00
2022-11-08T06:21:23.495Z,19.00
2022-11-08T06:24:25.651Z,18.97
2022-11-08T06:27:28.243Z,19.00
2022-11-08T06:30:30.504Z,19.00
2022-11-08T06:33:33.356Z,18.99
2022-11-08T06:36:35.542Z,19.01
2022-11-08T06:39:38.470Z,18.99
2022-11-08T06:42:40.418Z,19.01
2022-11-08T06:45:42.851Z,19.01
2022-11-08T06:48:45.200Z,18.99
2022-11-08T06:51:47.687Z,18.97
2022-11-08T06:54:49.730Z,18.97
2022-11-08T06:57:52.859Z,19.00
2022-11-08T07:00:55.032Z,18.97
2022-11-08T07:03:57.597Z,18.87
2022-11-08T07:06:59.659Z,18.87
2022-11-08T07:10:04.248Z,18.90
2022-11-08T07:13:10.869Z,18.91
2022-11-08T07:16:14.485Z,18.90
2022-11-08T07:19:17.156Z,18.73
2022-11-08T07:22:20.070Z,18.50
2022-11-08T07:25:22.943Z,18.67
2022-11-08T07:28:25.857Z,18.86
2022-11-08T07:31:28.517Z,18.91
2022-11-08T07:34:32.302Z,18.79
2022-11-08T07:37:34.737Z,18.74
2022-11-08T07:40:37.109Z,18.76
2022-11-08T07:43:39.448Z,18.57
2022-11-08T07:46:46.494Z,18.43
2022-11-08T07:49:48.912Z,18.63
2022-11-08T07:52:51.760Z,18.28
2022-11-08T07:55:55.433Z,18.10
2022-11-08T07:58:58.356Z,18.04
2022-11-08T08:02:00.547Z,18.10
2022-11-08T08:05:04.217Z,18.47
2022-11-08T08:08:08.964Z,18.56
2022-11-08T08:11:12.703Z,17.94
2022-11-08T08:14:15.151Z,17.85
2022-11-08T08:17:17.877Z,18.16
2022-11-08T08:20:20.235Z,17.82
2022-11-08T08:23:24.400Z,18.09
2022-11-08T08:26:26.507Z,18.45
2022-11-08T08:29:29.404Z,18.57
2022-11-08T08:32:31.890Z,18.47
2022-11-08T08:35:36.823Z,18.42
2022-11-08T08:38:44.386Z,18.05
2022-11-08T08:41:47.325Z,17.88
2022-11-08T08:44:49.404Z,17.99
2022-11-08T08:47:57.194Z,17.77
2022-11-08T08:50:59.783Z,17.85
2022-11-08T08:54:02.393Z,17.38
2022-11-08T08:57:04.735Z,17.34
2022-11-08T09:03:30.403Z,18.02
2022-11-08T09:06:32.845Z,17.82
2022-11-08T09:09:35.980Z,17.71
2022-11-08T09:12:38.814Z,17.98
2022-11-08T09:15:40.751Z,17.91
2022-11-08T09:18:43.277Z,17.85
2022-11-08T09:21:45.765Z,18.06
2022-11-08T09:24:48.430Z,17.89
2022-11-08T09:27:50.379Z,17.81
2022-11-08T09:30:52.914Z,17.57
2022-11-08T09:33:55.076Z,17.54
2022-11-08T09:36:57.872Z,17.61
2022-11-08T09:40:00.254Z,17.73
2022-11-08T09:43:27.422Z,17.70
2022-11-08T09:46:41.997Z,17.48
2022-11-08T09:49:58.288Z,17.50
2022-11-08T09:53:08.511Z,17.82
2022-11-08T09:56:14.814Z,17.70
2022-11-08T09:59:38.784Z,17.88
2022-11-08T10:02:41.440Z,17.74
2022-11-08T10:06:08.965Z,17.63
2022-11-08T10:09:30.276Z,18.01
2022-11-08T10:12:35.358Z,17.82
2022-11-08T10:15:49.521Z,17.74
2022-11-08T10:19:08.027Z,17.64
2022-11-08T10:22:32.127Z,17.68
2022-11-08T10:25:48.779Z,17.67
2022-11-08T10:28:56.725Z,18.08
2022-11-08T10:32:04.062Z,17.84
2022-11-08T10:35:19.786Z,18.01
2022-11-08T10:38:30.979Z,17.85
2022-11-08T10:41:48.972Z,17.98
2022-11-08T10:44:51.511Z,18.35
2022-11-08T10:47:54.948Z,18.01
2022-11-08T10:50:57.391Z,18.39
2022-11-08T10:54:01.187Z,18.42
2022-11-08T10:57:04.146Z,18.36
2022-11-08T11:00:16.569Z,18.45
2022-11-08T11:03:29.148Z,18.50
2022-11-08T11:06:33.941Z,18.26
2022-11-08T11:09:37.147Z,18.55
2022-11-08T11:12:39.738Z,18.67
2022-11-08T11:15:51.290Z,19.01
2022-11-08T11:18:54.373Z,18.70
2022-11-08T11:22:06.252Z,19.03
2022-11-08T11:25:18.826Z,19.20
2022-11-08T11:28:20.925Z,19.38
2022-11-08T11:31:23.448Z,19.21
2022-11-08T11:34:35.970Z,18.93
2022-11-08T11:37:44.719Z,19.08
2022-11-08T11:40:47.954Z,19.25
2022-11-08T11:44:20.698Z,18.96
2022-11-08T11:47:48.401Z,18.94
2022-11-08T11:50:51.389Z,18.90
2022-11-08T11:53:53.592Z,18.91
2022-11-08T11:57:04.860Z,18.71
2022-11-08T12:00:14.167Z,18.79
2022-11-08T12:03:59.731Z,18.52
2022-11-08T12:07:14.073Z,18.59
2022-11-08T12:10:19.934Z,18.71
2022-11-08T12:13:22.574Z,18.91
2022-11-08T12:16:53.060Z,18.87
2022-11-08T12:20:36.882Z,19.06
2022-11-08T12:23:54.817Z,18.90
2022-11-08T12:27:05.106Z,18.76
2022-11-08T12:30:14.325Z,18.74
2022-11-08T12:33:41.091Z,18.94
2022-11-08T12:36:55.881Z,18.77
2022-11-08T12:40:07.282Z,19.01
2022-11-08T12:43:16.350Z,18.93
2022-11-08T12:46:20.869Z,19.03
2022-11-08T12:49:39.496Z,18.84
2022-11-08T12:52:53.436Z,18.71
2022-11-08T12:55:58.770Z,19.00
2022-11-08T12:59:01.519Z,19.17
2022-11-08T13:02:06.227Z,19.21
2022-11-08T13:05:17.682Z,19.04
2022-11-08T13:08:31.189Z,19.18
2022-11-08T13:11:56.195Z,19.44
2022-11-08T13:15:01.122Z,19.38
2022-11-08T13:18:06.621Z,19.30
2022-11-08T13:21:39.633Z,19.12
2022-11-08T13:24:45.169Z,19.14
2022-11-08T13:27:49.629Z,19.18
2022-11-08T13:31:02.043Z,19.51
2022-11-08T13:34:17.707Z,19.57
2022-11-08T13:37:44.302Z,19.65
2022-11-08T13:41:18.501Z,19.85
2022-11-08T13:44:55.752Z,19.65
2022-11-08T13:48:02.530Z,19.72
2022-11-08T13:51:24.467Z,19.82
2022-11-08T13:54:28.872Z,19.90
2022-11-08T13:57:58.573Z,19.72
2022-11-08T14:01:22.801Z,19.59
2022-11-08T14:04:30.666Z,19.34
2022-11-08T14:07:47.192Z,19.04
2022-11-08T14:11:09.017Z,18.94
2022-11-08T14:14:35.968Z,19.22
2022-11-08T14:18:00.282Z,19.27
2022-11-08T14:21:05.183Z,19.31
2022-11-08T14:24:18.935Z,19.01
2022-11-08T14:27:37.528Z,18.81
2022-11-08T14:30:50.528Z,18.87
2022-11-08T14:33:54.381Z,18.83
2022-11-08T14:36:57.817Z,18.83
2022-11-08T14:40:00.468Z,18.94
2022-11-08T14:43:02.667Z,18.93
2022-11-08T14:46:14.469Z,19.06
2022-11-08T14:49:38.042Z,18.90
2022-11-08T14:52:40.984Z,19.01
2022-11-08T14:55:43.411Z,19.24
2022-11-08T14:58:47.852Z,19.24
2022-11-08T15:01:50.666Z,19.11
2022-11-08T15:04:54.652Z,19.08
2022-11-08T15:07:58.728Z,19.22
2022-11-08T15:11:13.159Z,18.90
2022-11-08T15:14:22.539Z,19.06
2022-11-08T15:17:36.867Z,19.31
2022-11-08T15:20:39.991Z,19.20
2022-11-08T15:23:53.646Z,19.38
2022-11-08T15:27:01.831Z,19.32
2022-11-08T15:30:09.559Z,19.14
2022-11-08T15:33:36.383Z,19.15
2022-11-08T15:36:38.989Z,18.96
2022-11-08T15:39:41.445Z,19.00
2022-11-08T15:42:47.260Z,19.35
2022-11-08T15:45:55.172Z,19.32
2022-11-08T15:48:59.780Z,19.52
2022-11-08T15:52:04.129Z,19.47
2022-11-08T15:55:07.397Z,19.54
2022-11-08T15:58:23.901Z,19.28
2022-11-08T16:01:26.622Z,19.14
2022-11-08T16:04:30.213Z,19.57
2022-11-08T16:07:33.003Z,19.52
2022-11-08T16:10:42.922Z,19.04
2022-11-08T16:13:45.746Z,18.96
2022-11-08T16:16:47.817Z,18.94
2022-11-08T16:19:50.319Z,18.52
2022-11-08T16:22:52.959Z,18.53
2022-11-08T16:25:57.734Z,19.18
2022-11-08T16:28:59.933Z,19.01
2022-11-08T16:32:02.929Z,19.07
2022-11-08T16:35:06.116Z,18.90
2022-11-08T16:38:10.764Z,19.04
2022-11-08T16:41:13.961Z,18.94
2022-11-08T16:44:17.164Z,19.12
2022-11-08T16:47:19.882Z,18.89
2022-11-08T16:50:26.406Z,18.56
2022-11-08T16:53:35.630Z,18.61
2022-11-08T16:56:38.493Z,18.79
2022-11-08T16:59:40.860Z,18.91
2022-11-08T17:02:49.669Z,18.12
2022-11-08T17:05:52.568Z,17.58
2022-11-08T17:08:55.197Z,17.19
2022-11-08T17:11:57.906Z,17.04
2022-11-08T17:15:00.746Z,16.94
2022-11-08T17:18:03.812Z,17.47
2022-11-08T17:24:44.974Z,17.82
2022-11-08T17:27:49.939Z,18.01
2022-11-08T17:30:51.987Z,18.43
2022-11-08T17:33:56.816Z,18.93
2022-11-08T17:36:58.886Z,18.89
2022-11-08T17:40:02.551Z,18.93
2022-11-08T17:43:04.825Z,19.01
2022-11-08T17:46:07.634Z,19.06
2022-11-08T17:49:09.885Z,19.15
2022-11-08T17:52:12.565Z,19.06
2022-11-08T17:55:14.770Z,19.20
2022-11-08T17:58:17.620Z,19.18
2022-11-08T18:01:19.939Z,19.17
2022-11-08T18:04:22.587Z,19.14
2022-11-08T18:07:24.888Z,19.20
2022-11-08T18:10:27.372Z,19.31
2022-11-08T18:13:30.875Z,18.73
2022-11-08T18:16:34.824Z,18.74
2022-11-08T18:19:37.960Z,19.01
2022-11-08T18:22:41.268Z,18.84
2022-11-08T18:25:49.430Z,18.30
2022-11-08T18:28:55.368Z,18.60
2022-11-08T18:31:59.307Z,18.57
2022-11-08T18:35:02.078Z,18.67
2022-11-08T18:38:04.428Z,18.50
2022-11-08T18:41:09.334Z,18.61
2022-11-08T18:44:12.020Z,18.80
2022-11-08T18:47:14.643Z,18.52
2022-11-08T18:50:16.965Z,18.55
2022-11-08T18:53:19.512Z,18.25
2022-11-08T18:56:22.166Z,18.13
2022-11-08T18:59:24.564Z,18.18
2022-11-08T19:02:26.843Z,18.19
2022-11-08T19:05:29.812Z,18.32
2022-11-08T19:08:32.845Z,17.92
2022-11-08T19:11:36.732Z,18.01
2022-11-08T19:15:19.246Z,18.01
2022-11-08T19:18:34.332Z,18.05
2022-11-08T19:21:41.536Z,17.96
2022-11-08T19:24:44.659Z,17.98
2022-11-08T19:27:47.307Z,17.85
2022-11-08T19:30:54.502Z,18.06
2022-11-08T19:33:57.409Z,17.85
2022-11-08T19:37:00.465Z,18.16
2022-11-08T19:40:02.564Z,18.02
2022-11-08T19:43:05.585Z,18.05
2022-11-08T19:46:13.102Z,18.05
2022-11-08T19:49:15.444Z,18.10
2022-11-08T19:52:18.468Z,17.94
2022-11-08T19:55:21.309Z,18.04
2022-11-08T19:58:23.426Z,17.91
2022-11-08T20:01:36.538Z,18.06
2022-11-08T20:04:38.895Z,19.04
2022-11-08T20:07:45.956Z,19.10
2022-11-08T20:10:50.271Z,19.30
2022-11-08T20:13:53.496Z,19.35
2022-11-08T20:16:56.144Z,19.28
2022-11-08T20:20:00.225Z,19.17
2022-11-08T20:23:04.261Z,19.14
2022-11-08T20:26:10.777Z,19.12
2022-11-08T20:29:15.083Z,19.06
2022-11-08T20:32:17.636Z,19.07
2022-11-08T20:35:23.456Z,19.06
2022-11-08T20:38:26.767Z,19.08
2022-11-08T20:41:30.280Z,19.15
2022-11-08T20:44:32.979Z,19.31
2022-11-08T20:47:36.732Z,19.36
2022-11-08T20:50:41.743Z,19.41
2022-11-08T20:53:45.683Z,19.41
2022-11-08T20:56:48.678Z,19.54
2022-11-08T20:59:50.842Z,19.59
2022-11-08T21:02:53.734Z,19.62
2022-11-08T21:06:06.314Z,19.73
2022-11-08T21:09:49.741Z,19.78
2022-11-08T21:12:31.241Z,19.78
2022-11-08T21:15:34.118Z,19.79
2022-11-08T21:18:37.313Z,19.81
2022-11-08T21:21:42.344Z,19.86
2022-11-08T21:24:47.223Z,19.87
2022-11-08T21:27:49.686Z,19.87
2022-11-08T21:30:52.175Z,19.86
2022-11-08T21:33:55.339Z,19.93
2022-11-08T21:36:58.814Z,19.90
2022-11-08T21:40:02.560Z,20.08
2022-11-08T21:43:05.105Z,20.19
2022-11-08T21:46:26.133Z,20.43
2022-11-08T21:49:28.958Z,20.27
2022-11-08T21:52:31.509Z,20.19
2022-11-08T21:55:34.674Z,20.17
2022-11-08T21:58:37.113Z,20.17
2022-11-08T22:01:41.992Z,20.20
2022-11-08T22:04:45.119Z,20.26
2022-11-08T22:07:47.361Z,20.26
2022-11-08T22:10:50.157Z,20.25
2022-11-08T22:13:53.354Z,20.26
2022-11-08T22:16:56.766Z,20.26
2022-11-08T22:20:00.835Z,20.27
2022-11-08T22:23:08.811Z,20.29
2022-11-08T22:26:12.842Z,20.32
2022-11-08T22:29:16.116Z,20.30
2022-11-08T22:32:18.603Z,20.33
2022-11-08T22:35:21.023Z,20.39
2022-11-08T22:38:23.165Z,20.37
2022-11-08T22:41:26.861Z,20.46
2022-11-08T22:44:30.156Z,20.47
2022-11-08T22:47:33.100Z,20.44
2022-11-08T22:50:36.042Z,20.39
2022-11-08T22:53:38.800Z,20.41
2022-11-08T22:56:42.224Z,20.46
2022-11-08T22:59:45.214Z,20.47
2022-11-08T23:02:49.094Z,20.50
2022-11-08T23:05:53.924Z,20.47
2022-11-08T23:08:56.261Z,20.47
2022-11-08T23:12:17.228Z,20.47
2022-11-08T23:15:37.911Z,20.44
2022-11-08T23:19:00.549Z,20.51
2022-11-08T23:22:23.735Z,20.53
2022-11-08T23:25:26.484Z,20.44
2022-11-08T23:28:47.383Z,20.43
2022-11-08T23:31:49.905Z,20.47
2022-11-08T23:34:52.448Z,20.54
2022-11-08T23:37:55.326Z,20.50
2022-11-08T23:41:20.241Z,20.48
2022-11-08T23:44:25.712Z,20.47
2022-11-08T23:47:27.948Z,20.53
2022-11-08T23:50:30.516Z,20.50
2022-11-08T23:53:35.681Z,20.41
2022-11-08T23:56:40.290Z,20.29
2022-11-08T23:59:42.656Z,20.20
